Time,TemperatureF,DewpointF,PressureIn,WindDirection,WindDirectionDegrees,WindSpeedMPH,WindSpeedGustMPH,Humidity,HourlyPrecipIn,Conditions,Clouds,dailyrainin,SoftwareType,DateUTC
2013-01-03 00:00:00,65.3,61.7,29.96,North,-999,0.0,0.0,88,0.00,,,-99.99,WeatherLink 5.7,2013-01-03 05:00:00,
2013-01-03 00:15:00,65.3,61.7,29.96,North,-999,0.0,0.0,88,0.00,,,-99.99,WeatherLink 5.7,2013-01-03 05:15:00,
2013-01-03 00:30:00,65.3,61.7,29.95,North,-999,0.0,0.0,88,0.00,,,-99.99,WeatherLink 5.7,2013-01-03 05:30:00,
2013-01-03 00:45:00,65.5,62.2,29.95,North,-999,0.0,0.0,89,0.00,,,-99.99,WeatherLink 5.7,2013-01-03 05:45:00,
2013-01-03 01:00:00,65.6,62.3,29.95,North,-999,0.0,0.0,89,0.00,,,-99.99,WeatherLink 5.7,2013-01-03 06:00:00,
2013-01-03 01:15:00,65.6,62.3,29.95,North,-999,0.0,0.0,89,0.00,,,-99.99,WeatherLink 5.7,2013-01-03 06:15:00,
2013-01-03 01:30:00,65.6,62.3,29.95,North,-999,0.0,0.0,89,0.00,,,-99.99,WeatherLink 5.7,2013-01-03 06:30:00,
2013-01-03 01:45:00,65.8,62.5,29.95,North,-999,0.0,0.0,89,0.00,,,-99.99,WeatherLink 5.7,2013-01-03 06:45:00,
2013-01-03 02:00:00,65.9,62.9,29.94,North,-999,0.0,0.0,90,0.00,,,-99.99,WeatherLink 5.7,2013-01-03 07:00:00,
2013-01-03 02:15:00,66.1,63.1,29.94,North,0,0.0,2.0,90,0.00,,,-99.99,WeatherLink 5.7,2013-01-03 07:15:00,
2013-01-03 02:30:00,66.1,63.1,29.94,North,0,0.0,4.0,90,0.00,,,-99.99,WeatherLink 5.7,2013-01-03 07:30:00,
2013-01-03 02:45:00,66.1,63.1,29.94,North,-999,0.0,0.0,90,0.00,,,-99.99,WeatherLink 5.7,2013-01-03 07:45:00,
2013-01-03 03:00:00,66.1,63.4,29.94,North,0,0.0,4.0,91,0.00,,,-99.99,WeatherLink 5.7,2013-01-03 08:00:00,
2013-01-03 03:15:00,66.2,63.5,29.93,North,0,0.0,5.0,91,0.00,,,-99.99,WeatherLink 5.7,2013-01-03 08:15:00,
2013-01-03 03:30:00,66.3,63.6,29.93,North,0,0.0,3.0,91,0.00,,,-99.99,WeatherLink 5.7,2013-01-03 08:30:00,
2013-01-03 03:45:00,66.3,63.9,29.93,North,0,0.0,4.0,92,0.00,,,-99.99,WeatherLink 5.7,2013-01-03 08:45:00,
2013-01-03 04:00:00,66.2,63.8,29.93,North,0,0.0,4.0,92,0.00,,,-99.99,WeatherLink 5.7,2013-01-03 09:00:00,
2013-01-03 04:15:00,66.0,63.6,29.93,North,-999,0.0,0.0,92,0.00,,,-99.99,WeatherLink 5.7,2013-01-03 09:15:00,
2013-01-03 04:30:00,65.9,63.5,29.94,North,-999,0.0,0.0,92,0.00,,,-99.99,WeatherLink 5.7,2013-01-03 09:30:00,
2013-01-03 04:45:00,65.7,63.3,29.94,North,-999,0.0,0.0,92,0.00,,,-99.99,WeatherLink 5.7,2013-01-03 09:45:00,
2013-01-03 05:00:00,65.5,63.1,29.95,North,-999,0.0,0.0,92,0.00,,,-99.99,WeatherLink 5.7,2013-01-03 10:00:00,
2013-01-03 05:15:00,65.4,63.0,29.95,North,-999,0.0,0.0,92,0.00,,,-99.99,WeatherLink 5.7,2013-01-03 10:15:00,
2013-01-03 05:30:00,65.3,62.9,29.95,North,-999,0.0,0.0,92,0.00,,,-99.99,WeatherLink 5.7,2013-01-03 10:30:00,
2013-01-03 05:45:00,65.3,62.9,29.96,North,-999,0.0,0.0,92,0.00,,,-99.99,WeatherLink 5.7,2013-01-03 10:45:00,
2013-01-03 06:00:00,65.3,62.9,29.97,North,-999,0.0,0.0,92,0.00,,,-99.99,WeatherLink 5.7,2013-01-03 11:00:00,
2013-01-03 06:15:00,65.2,63.1,29.97,North,-999,0.0,0.0,93,0.00,,,-99.99,WeatherLink 5.7,2013-01-03 11:15:00,
2013-01-03 06:30:00,65.2,63.1,29.97,North,-999,0.0,0.0,93,0.00,,,-99.99,WeatherLink 5.7,2013-01-03 11:30:00,
2013-01-03 06:45:00,65.2,63.1,29.97,North,-999,0.0,0.0,93,0.00,,,-99.99,WeatherLink 5.7,2013-01-03 11:45:00,
2013-01-03 07:00:00,65.1,63.0,29.97,North,-999,0.0,0.0,93,0.00,,,-99.99,WeatherLink 5.7,2013-01-03 12:00:00,
2013-01-03 07:15:00,64.8,62.7,29.98,North,-999,0.0,0.0,93,0.00,,,-99.99,WeatherLink 5.7,2013-01-03 12:15:00,
2013-01-03 07:30:00,64.6,62.5,29.99,North,-999,0.0,0.0,93,0.00,,,-99.99,WeatherLink 5.7,2013-01-03 12:30:00,
2013-01-03 07:45:00,64.5,62.4,29.99,North,-999,0.0,0.0,93,0.00,,,-99.99,WeatherLink 5.7,2013-01-03 12:45:00,
2013-01-03 08:00:00,64.5,62.7,29.99,North,-999,0.0,0.0,94,0.00,,,-99.99,WeatherLink 5.7,2013-01-03 13:00:00,
2013-01-03 08:15:00,64.8,63.0,29.99,North,0,0.0,5.0,94,0.00,,,-99.99,WeatherLink 5.7,2013-01-03 13:15:00,
2013-01-03 08:30:00,65.1,63.3,29.99,North,-999,0.0,0.0,94,0.00,,,-99.99,WeatherLink 5.7,2013-01-03 13:30:00,
2013-01-03 08:45:00,65.5,63.7,29.99,North,0,0.0,4.0,94,0.01,,,-99.99,WeatherLink 5.7,2013-01-03 13:45:00,
2013-01-03 09:00:00,65.7,63.9,29.99,North,0,1.0,7.0,94,0.01,,,-99.99,WeatherLink 5.7,2013-01-03 14:00:00,
2013-01-03 09:15:00,66.2,64.4,30.00,North,0,0.0,6.0,94,0.01,,,-99.99,WeatherLink 5.7,2013-01-03 14:15:00,
2013-01-03 09:30:00,66.7,64.9,30.00,North,0,1.0,6.0,94,0.01,,,-99.99,WeatherLink 5.7,2013-01-03 14:30:00,
2013-01-03 09:45:00,67.1,65.3,30.00,North,0,1.0,7.0,94,0.00,,,-99.99,WeatherLink 5.7,2013-01-03 14:45:00,
2013-01-03 10:00:00,67.8,66.0,30.00,North,0,0.0,6.0,94,0.00,,,-99.99,WeatherLink 5.7,2013-01-03 15:00:00,
2013-01-03 10:15:00,68.3,66.2,30.00,North,0,0.0,5.0,93,0.00,,,-99.99,WeatherLink 5.7,2013-01-03 15:15:00,
2013-01-03 10:30:00,68.8,66.4,30.00,North,0,0.0,3.0,92,0.00,,,-99.99,WeatherLink 5.7,2013-01-03 15:30:00,
2013-01-03 10:45:00,69.4,66.7,30.01,North,0,0.0,5.0,91,0.00,,,-99.99,WeatherLink 5.7,2013-01-03 15:45:00,
2013-01-03 11:00:00,70.1,67.0,30.00,North,0,0.0,6.0,90,0.00,,,-99.99,WeatherLink 5.7,2013-01-03 16:00:00,
2013-01-03 11:15:00,70.0,66.6,30.00,North,0,0.0,4.0,89,0.00,,,-99.99,WeatherLink 5.7,2013-01-03 16:15:00,
2013-01-03 11:30:00,69.7,66.3,29.98,North,-999,0.0,0.0,89,0.00,,,-99.99,WeatherLink 5.7,2013-01-03 16:30:00,
2013-01-03 11:45:00,69.8,66.1,29.99,North,-999,0.0,0.0,88,0.00,,,-99.99,WeatherLink 5.7,2013-01-03 16:45:00,
2013-01-03 12:00:00,70.2,66.1,29.97,North,-999,0.0,0.0,87,0.00,,,-99.99,WeatherLink 5.7,2013-01-03 17:00:00,
2013-01-03 12:15:00,70.7,66.6,29.96,North,-999,0.0,0.0,87,0.00,,,-99.99,WeatherLink 5.7,2013-01-03 17:15:00,
2013-01-03 12:30:00,71.3,66.9,29.96,North,-999,0.0,0.0,86,0.00,,,-99.99,WeatherLink 5.7,2013-01-03 17:30:00,
2013-01-03 12:45:00,71.7,66.9,29.96,North,-999,0.0,0.0,85,0.00,,,-99.99,WeatherLink 5.7,2013-01-03 17:45:00,
2013-01-03 13:00:00,72.2,67.1,29.96,North,-999,0.0,0.0,84,0.00,,,-99.99,WeatherLink 5.7,2013-01-03 18:00:00,
2013-01-03 13:15:00,72.6,67.1,29.95,North,-999,0.0,0.0,83,0.00,,,-99.99,WeatherLink 5.7,2013-01-03 18:15:00,
2013-01-03 13:30:00,72.7,67.2,29.95,North,-999,0.0,0.0,83,0.00,,,-99.99,WeatherLink 5.7,2013-01-03 18:30:00,
2013-01-03 13:45:00,72.4,66.6,29.95,North,0,0.0,4.0,82,0.00,,,-99.99,WeatherLink 5.7,2013-01-03 18:45:00,
2013-01-03 14:45:00,66.3,62.0,29.96,North,0,4.0,13.0,86,0.00,,,-99.99,WeatherLink 5.7,2013-01-03 19:45:00,
2013-01-03 15:00:00,65.1,61.1,29.95,North,0,3.0,10.0,87,0.00,,,-99.99,WeatherLink 5.7,2013-01-03 20:00:00,
2013-01-03 15:15:00,64.7,61.1,29.95,North,0,3.0,10.0,88,0.00,,,-99.99,WeatherLink 5.7,2013-01-03 20:15:00,
2013-01-03 15:30:00,64.4,60.8,29.96,North,0,3.0,12.0,88,0.00,,,-99.99,WeatherLink 5.7,2013-01-03 20:30:00,
2013-01-03 15:45:00,64.1,60.8,29.97,North,0,5.0,13.0,89,0.00,,,-99.99,WeatherLink 5.7,2013-01-03 20:45:00,
2013-01-03 16:00:00,63.7,60.4,29.98,North,0,1.0,9.0,89,0.00,,,-99.99,WeatherLink 5.7,2013-01-03 21:00:00,
2013-01-03 16:15:00,63.5,60.5,29.98,North,0,2.0,12.0,90,0.00,,,-99.99,WeatherLink 5.7,2013-01-03 21:15:00,
2013-01-03 16:30:00,63.5,60.5,29.98,North,0,1.0,9.0,90,0.00,,,-99.99,WeatherLink 5.7,2013-01-03 21:30:00,
2013-01-03 16:45:00,63.4,60.4,29.99,North,0,0.0,6.0,90,0.01,,,-99.99,WeatherLink 5.7,2013-01-03 21:45:00,
2013-01-03 17:00:00,63.2,60.2,29.99,North,0,0.0,5.0,90,0.02,,,-99.99,WeatherLink 5.7,2013-01-03 22:00:00,
2013-01-03 17:15:00,63.2,60.5,29.99,North,-999,0.0,0.0,91,0.02,,,-99.99,WeatherLink 5.7,2013-01-03 22:15:00,
2013-01-03 17:30:00,63.2,60.5,29.99,North,-999,0.0,0.0,91,0.03,,,-99.99,WeatherLink 5.7,2013-01-03 22:30:00,
2013-01-03 17:45:00,63.3,60.6,30.00,North,0,0.0,4.0,91,0.03,,,-99.99,WeatherLink 5.7,2013-01-03 22:45:00,
2013-01-03 18:00:00,63.5,60.8,30.01,North,0,3.0,13.0,91,0.03,,,-99.99,WeatherLink 5.7,2013-01-03 23:00:00,
2013-01-03 18:15:00,63.2,60.5,30.02,North,0,3.0,13.0,91,0.04,,,-99.99,WeatherLink 5.7,2013-01-03 23:15:00,
2013-01-03 18:30:00,62.4,59.4,30.03,North,0,5.0,13.0,90,0.03,,,-99.99,WeatherLink 5.7,2013-01-03 23:30:00,
2013-01-03 18:45:00,61.5,58.8,30.03,North,0,4.0,12.0,91,0.03,,,-99.99,WeatherLink 5.7,2013-01-03 23:45:00,
2013-01-03 19:00:00,61.0,58.4,30.04,North,0,2.0,11.0,91,0.04,,,-99.99,WeatherLink 5.7,2013-01-04 00:00:00,
2013-01-03 19:15:00,60.5,57.9,30.04,North,0,2.0,14.0,91,0.04,,,-99.99,WeatherLink 5.7,2013-01-04 00:15:00,
2013-01-03 19:30:00,60.1,57.5,30.05,North,0,2.0,12.0,91,0.04,,,-99.99,WeatherLink 5.7,2013-01-04 00:30:00,
2013-01-03 19:45:00,59.8,57.2,30.05,North,0,2.0,13.0,91,0.03,,,-99.99,WeatherLink 5.7,2013-01-04 00:45:00,
2013-01-03 20:00:00,59.5,56.9,30.05,North,0,1.0,10.0,91,0.01,,,-99.99,WeatherLink 5.7,2013-01-04 01:00:00,
2013-01-03 20:15:00,59.2,56.9,30.05,North,0,1.0,7.0,92,0.00,,,-99.99,WeatherLink 5.7,2013-01-04 01:15:00,
2013-01-03 20:30:00,59.1,56.8,30.05,North,0,0.0,6.0,92,0.01,,,-99.99,WeatherLink 5.7,2013-01-04 01:30:00,
2013-01-03 20:45:00,59.0,56.7,30.05,North,0,1.0,7.0,92,0.01,,,-99.99,WeatherLink 5.7,2013-01-04 01:45:00,
2013-01-03 21:00:00,59.0,56.7,30.06,North,0,0.0,3.0,92,0.02,,,-99.99,WeatherLink 5.7,2013-01-04 02:00:00,
2013-01-03 21:15:00,59.0,57.0,30.06,North,0,0.0,12.0,93,0.02,,,-99.99,WeatherLink 5.7,2013-01-04 02:15:00,
2013-01-03 21:30:00,59.2,57.2,30.07,North,0,0.0,3.0,93,0.02,,,-99.99,WeatherLink 5.7,2013-01-04 02:30:00,
2013-01-03 21:45:00,59.2,57.2,30.07,North,0,0.0,6.0,93,0.02,,,-99.99,WeatherLink 5.7,2013-01-04 02:45:00,
2013-01-03 22:00:00,59.2,57.2,30.07,North,-999,0.0,0.0,93,0.02,,,-99.99,WeatherLink 5.7,2013-01-04 03:00:00,
2013-01-03 22:15:00,59.3,57.3,30.07,North,0,0.0,8.0,93,0.03,,,-99.99,WeatherLink 5.7,2013-01-04 03:15:00,
2013-01-03 22:30:00,59.2,57.2,30.08,North,0,0.0,7.0,93,0.03,,,-99.99,WeatherLink 5.7,2013-01-04 03:30:00,
2013-01-03 22:45:00,59.2,57.2,30.06,North,0,0.0,4.0,93,0.04,,,-99.99,WeatherLink 5.7,2013-01-04 03:45:00,
2013-01-03 23:00:00,59.2,57.2,30.07,North,-999,0.0,0.0,93,0.04,,,-99.99,WeatherLink 5.7,2013-01-04 04:00:00,
2013-01-03 23:15:00,59.3,57.3,30.07,North,0,0.0,6.0,93,0.03,,,-99.99,WeatherLink 5.7,2013-01-04 04:15:00,
2013-01-03 23:30:00,59.3,57.6,30.07,North,0,0.0,4.0,94,0.03,,,-99.99,WeatherLink 5.7,2013-01-04 04:30:00,
2013-01-03 23:45:00,59.3,57.6,30.07,North,0,0.0,4.0,94,0.03,,,-99.99,WeatherLink 5.7,2013-01-04 04:45:00,